sensor_id;sensor_type;location;lat;lon;timestamp;P1;durP1;ratioP1;P2;durP2;ratioP2
48789;SDS011;41718;51.980;5.734;2024-02-15T00:00:59;12.27;;;8.20;;
48789;SDS011;41718;51.980;5.734;2024-02-15T00:06:03;12.38;;;8.60;;
48789;SDS011;41718;51.980;5.734;2024-02-15T00:11:14;15.90;;;8.50;;
48789;SDS011;41718;51.980;5.734;2024-02-15T00:16:19;16.83;;;9.80;;
48789;SDS011;41718;51.980;5.734;2024-02-15T00:21:24;17.60;;;11.30;;
48789;SDS011;41718;51.980;5.734;2024-02-15T00:26:27;14.15;;;8.30;;
48789;SDS011;41718;51.980;5.734;2024-02-15T00:31:32;25.37;;;10.63;;
48789;SDS011;41718;51.980;5.734;2024-02-15T00:36:44;26.52;;;12.45;;
48789;SDS011;41718;51.980;5.734;2024-02-15T00:41:55;25.45;;;14.48;;
48789;SDS011;41718;51.980;5.734;2024-02-15T00:47:00;18.38;;;11.80;;
48789;SDS011;41718;51.980;5.734;2024-02-15T00:52:35;27.83;;;14.40;;
48789;SDS011;41718;51.980;5.734;2024-02-15T00:57:46;27.20;;;15.48;;
48789;SDS011;41718;51.980;5.734;2024-02-15T01:02:52;26.85;;;16.23;;
48789;SDS011;41718;51.980;5.734;2024-02-15T01:08:04;25.08;;;14.68;;
48789;SDS011;41718;51.980;5.734;2024-02-15T01:13:10;30.30;;;17.15;;
48789;SDS011;41718;51.980;5.734;2024-02-15T01:18:18;30.50;;;15.90;;
48789;SDS011;41718;51.980;5.734;2024-02-15T01:23:21;24.48;;;16.30;;
48789;SDS011;41718;51.980;5.734;2024-02-15T01:28:27;30.53;;;17.33;;
48789;SDS011;41718;51.980;5.734;2024-02-15T01:33:29;29.23;;;14.15;;
48789;SDS011;41718;51.980;5.734;2024-02-15T01:38:33;25.50;;;13.82;;
48789;SDS011;41718;51.980;5.734;2024-02-15T01:43:35;26.17;;;14.15;;
48789;SDS011;41718;51.980;5.734;2024-02-15T01:48:38;24.80;;;13.75;;
48789;SDS011;41718;51.980;5.734;2024-02-15T01:53:42;22.70;;;12.85;;
48789;SDS011;41718;51.980;5.734;2024-02-15T01:58:45;22.40;;;12.93;;
48789;SDS011;41718;51.980;5.734;2024-02-15T02:03:48;24.23;;;13.65;;
48789;SDS011;41718;51.980;5.734;2024-02-15T02:08:51;19.58;;;11.45;;
48789;SDS011;41718;51.980;5.734;2024-02-15T02:13:58;28.27;;;12.77;;
48789;SDS011;41718;51.980;5.734;2024-02-15T02:19:01;22.38;;;15.07;;
48789;SDS011;41718;51.980;5.734;2024-02-15T02:24:03;29.10;;;13.52;;
48789;SDS011;41718;51.980;5.734;2024-02-15T02:29:09;27.55;;;13.60;;
48789;SDS011;41718;51.980;5.734;2024-02-15T02:34:11;24.17;;;13.40;;
48789;SDS011;41718;51.980;5.734;2024-02-15T02:39:16;21.65;;;14.55;;
48789;SDS011;41718;51.980;5.734;2024-02-15T02:44:18;24.25;;;12.38;;
48789;SDS011;41718;51.980;5.734;2024-02-15T02:49:20;25.42;;;12.15;;
48789;SDS011;41718;51.980;5.734;2024-02-15T02:54:23;21.15;;;11.95;;
48789;SDS011;41718;51.980;5.734;2024-02-15T02:59:25;22.35;;;12.77;;
48789;SDS011;41718;51.980;5.734;2024-02-15T03:04:28;24.40;;;11.77;;
48789;SDS011;41718;51.980;5.734;2024-02-15T03:09:33;19.38;;;11.50;;
48789;SDS011;41718;51.980;5.734;2024-02-15T03:14:36;19.55;;;11.73;;
48789;SDS011;41718;51.980;5.734;2024-02-15T03:19:38;17.25;;;10.23;;
48789;SDS011;41718;51.980;5.734;2024-02-15T03:24:43;21.02;;;10.85;;
48789;SDS011;41718;51.980;5.734;2024-02-15T03:29:46;20.77;;;10.55;;
48789;SDS011;41718;51.980;5.734;2024-02-15T03:34:48;18.08;;;9.50;;
48789;SDS011;41718;51.980;5.734;2024-02-15T03:39:50;16.42;;;9.68;;
48789;SDS011;41718;51.980;5.734;2024-02-15T03:44:52;23.60;;;9.73;;
48789;SDS011;41718;51.980;5.734;2024-02-15T03:49:55;20.92;;;10.75;;
48789;SDS011;41718;51.980;5.734;2024-02-15T03:54:59;17.02;;;9.65;;
48789;SDS011;41718;51.980;5.734;2024-02-15T04:00:03;14.73;;;8.63;;
48789;SDS011;41718;51.980;5.734;2024-02-15T04:05:07;19.73;;;8.75;;
48789;SDS011;41718;51.980;5.734;2024-02-15T04:10:12;17.00;;;9.57;;
48789;SDS011;41718;51.980;5.734;2024-02-15T04:15:15;16.48;;;8.40;;
48789;SDS011;41718;51.980;5.734;2024-02-15T04:20:19;17.58;;;8.13;;
48789;SDS011;41718;51.980;5.734;2024-02-15T04:25:23;14.57;;;9.48;;
48789;SDS011;41718;51.980;5.734;2024-02-15T04:35:32;15.77;;;7.60;;
48789;SDS011;41718;51.980;5.734;2024-02-15T04:40:34;18.20;;;9.65;;
48789;SDS011;41718;51.980;5.734;2024-02-15T04:45:38;15.48;;;9.00;;
48789;SDS011;41718;51.980;5.734;2024-02-15T04:50:40;16.73;;;7.93;;
48789;SDS011;41718;51.980;5.734;2024-02-15T04:55:47;10.15;;;6.20;;
48789;SDS011;41718;51.980;5.734;2024-02-15T05:00:50;17.38;;;6.60;;
48789;SDS011;41718;51.980;5.734;2024-02-15T05:06:00;16.55;;;8.60;;
48789;SDS011;41718;51.980;5.734;2024-02-15T05:11:05;15.13;;;7.50;;
48789;SDS011;41718;51.980;5.734;2024-02-15T05:16:15;12.48;;;7.18;;
48789;SDS011;41718;51.980;5.734;2024-02-15T05:21:17;11.82;;;6.47;;
48789;SDS011;41718;51.980;5.734;2024-02-15T05:26:19;10.30;;;7.53;;
48789;SDS011;41718;51.980;5.734;2024-02-15T05:31:24;13.35;;;6.30;;
48789;SDS011;41718;51.980;5.734;2024-02-15T05:36:27;15.70;;;6.78;;
48789;SDS011;41718;51.980;5.734;2024-02-15T05:41:31;14.15;;;6.70;;
48789;SDS011;41718;51.980;5.734;2024-02-15T05:46:36;9.88;;;6.13;;
48789;SDS011;41718;51.980;5.734;2024-02-15T05:51:41;15.70;;;7.45;;
48789;SDS011;41718;51.980;5.734;2024-02-15T05:56:45;17.40;;;6.55;;
48789;SDS011;41718;51.980;5.734;2024-02-15T06:01:53;16.60;;;8.15;;
48789;SDS011;41718;51.980;5.734;2024-02-15T06:06:55;11.05;;;5.72;;
48789;SDS011;41718;51.980;5.734;2024-02-15T06:12:02;14.93;;;6.30;;
48789;SDS011;41718;51.980;5.734;2024-02-15T06:17:04;11.13;;;5.35;;
48789;SDS011;41718;51.980;5.734;2024-02-15T06:22:06;14.18;;;6.47;;
48789;SDS011;41718;51.980;5.734;2024-02-15T06:27:09;15.57;;;5.95;;
48789;SDS011;41718;51.980;5.734;2024-02-15T06:32:12;16.33;;;6.15;;
48789;SDS011;41718;51.980;5.734;2024-02-15T06:37:39;11.80;;;5.65;;
48789;SDS011;41718;51.980;5.734;2024-02-15T06:43:00;12.65;;;5.55;;
48789;SDS011;41718;51.980;5.734;2024-02-15T06:48:02;10.38;;;5.40;;
48789;SDS011;41718;51.980;5.734;2024-02-15T06:53:05;10.80;;;6.38;;
48789;SDS011;41718;51.980;5.734;2024-02-15T06:58:07;12.30;;;5.10;;
48789;SDS011;41718;51.980;5.734;2024-02-15T07:03:10;9.57;;;6.07;;
48789;SDS011;41718;51.980;5.734;2024-02-15T07:08:15;14.55;;;7.18;;
48789;SDS011;41718;51.980;5.734;2024-02-15T07:13:20;10.20;;;5.27;;
48789;SDS011;41718;51.980;5.734;2024-02-15T07:18:32;9.40;;;5.65;;
48789;SDS011;41718;51.980;5.734;2024-02-15T07:23:40;9.32;;;6.03;;
48789;SDS011;41718;51.980;5.734;2024-02-15T07:28:44;10.53;;;5.90;;
48789;SDS011;41718;51.980;5.734;2024-02-15T07:33:53;9.23;;;5.15;;
48789;SDS011;41718;51.980;5.734;2024-02-15T07:39:01;9.90;;;5.43;;
48789;SDS011;41718;51.980;5.734;2024-02-15T07:44:08;10.77;;;5.20;;
48789;SDS011;41718;51.980;5.734;2024-02-15T07:49:10;9.70;;;5.13;;
48789;SDS011;41718;51.980;5.734;2024-02-15T07:54:14;7.90;;;4.57;;
48789;SDS011;41718;51.980;5.734;2024-02-15T07:59:17;7.07;;;4.18;;
48789;SDS011;41718;51.980;5.734;2024-02-15T08:04:25;11.32;;;5.35;;
48789;SDS011;41718;51.980;5.734;2024-02-15T08:09:32;10.45;;;4.38;;
48789;SDS011;41718;51.980;5.734;2024-02-15T08:14:41;4.82;;;3.50;;
48789;SDS011;41718;51.980;5.734;2024-02-15T08:19:45;5.85;;;3.75;;
48789;SDS011;41718;51.980;5.734;2024-02-15T08:24:52;4.70;;;3.70;;
48789;SDS011;41718;51.980;5.734;2024-02-15T08:29:59;8.40;;;4.22;;
48789;SDS011;41718;51.980;5.734;2024-02-15T08:35:01;7.28;;;3.85;;
48789;SDS011;41718;51.980;5.734;2024-02-15T08:40:07;8.52;;;4.75;;
48789;SDS011;41718;51.980;5.734;2024-02-15T08:45:28;7.72;;;5.10;;
48789;SDS011;41718;51.980;5.734;2024-02-15T08:51:50;7.80;;;4.88;;
48789;SDS011;41718;51.980;5.734;2024-02-15T09:03:41;7.78;;;4.82;;
48789;SDS011;41718;51.980;5.734;2024-02-15T09:08:44;7.15;;;6.07;;
48789;SDS011;41718;51.980;5.734;2024-02-15T09:13:48;7.53;;;5.30;;
48789;SDS011;41718;51.980;5.734;2024-02-15T09:18:53;8.02;;;5.70;;
48789;SDS011;41718;51.980;5.734;2024-02-15T09:23:55;6.97;;;5.32;;
48789;SDS011;41718;51.980;5.734;2024-02-15T09:28:57;6.28;;;5.60;;
48789;SDS011;41718;51.980;5.734;2024-02-15T09:33:59;6.90;;;4.18;;
48789;SDS011;41718;51.980;5.734;2024-02-15T09:39:02;8.25;;;4.95;;
48789;SDS011;41718;51.980;5.734;2024-02-15T09:44:04;10.20;;;6.45;;
48789;SDS011;41718;51.980;5.734;2024-02-15T09:49:06;12.55;;;4.45;;
48789;SDS011;41718;51.980;5.734;2024-02-15T09:54:09;8.73;;;4.60;;
48789;SDS011;41718;51.980;5.734;2024-02-15T09:59:13;5.97;;;3.80;;
48789;SDS011;41718;51.980;5.734;2024-02-15T10:04:15;6.82;;;3.17;;
48789;SDS011;41718;51.980;5.734;2024-02-15T10:09:23;4.80;;;3.20;;
48789;SDS011;41718;51.980;5.734;2024-02-15T10:14:32;6.22;;;3.22;;
48789;SDS011;41718;51.980;5.734;2024-02-15T10:19:37;11.73;;;3.38;;
48789;SDS011;41718;51.980;5.734;2024-02-15T10:24:40;8.32;;;3.42;;
48789;SDS011;41718;51.980;5.734;2024-02-15T10:29:43;7.28;;;4.10;;
48789;SDS011;41718;51.980;5.734;2024-02-15T10:34:45;8.55;;;3.35;;
48789;SDS011;41718;51.980;5.734;2024-02-15T10:40:05;6.78;;;4.13;;
48789;SDS011;41718;51.980;5.734;2024-02-15T10:45:08;10.23;;;4.00;;
48789;SDS011;41718;51.980;5.734;2024-02-15T10:50:13;7.80;;;3.85;;
48789;SDS011;41718;51.980;5.734;2024-02-15T10:55:21;9.65;;;4.60;;
48789;SDS011;41718;51.980;5.734;2024-02-15T11:00:54;12.07;;;4.80;;
48789;SDS011;41718;51.980;5.734;2024-02-15T11:05:58;10.10;;;4.63;;
48789;SDS011;41718;51.980;5.734;2024-02-15T11:11:05;13.48;;;6.35;;
48789;SDS011;41718;51.980;5.734;2024-02-15T11:16:08;6.22;;;4.07;;
48789;SDS011;41718;51.980;5.734;2024-02-15T11:21:11;8.93;;;5.03;;
48789;SDS011;41718;51.980;5.734;2024-02-15T11:26:51;7.80;;;4.03;;
48789;SDS011;41718;51.980;5.734;2024-02-15T11:32:06;8.05;;;3.30;;
48789;SDS011;41718;51.980;5.734;2024-02-15T11:37:09;10.55;;;4.88;;
48789;SDS011;41718;51.980;5.734;2024-02-15T11:42:38;7.45;;;5.03;;
48789;SDS011;41718;51.980;5.734;2024-02-15T11:47:42;6.53;;;4.18;;
48789;SDS011;41718;51.980;5.734;2024-02-15T11:52:44;9.50;;;4.95;;
48789;SDS011;41718;51.980;5.734;2024-02-15T11:58:09;6.95;;;4.22;;
48789;SDS011;41718;51.980;5.734;2024-02-15T12:03:16;9.68;;;4.70;;
48789;SDS011;41718;51.980;5.734;2024-02-15T12:08:37;9.07;;;6.22;;
48789;SDS011;41718;51.980;5.734;2024-02-15T12:13:59;7.90;;;5.45;;
48789;SDS011;41718;51.980;5.734;2024-02-15T12:19:23;8.18;;;5.18;;
48789;SDS011;41718;51.980;5.734;2024-02-15T12:24:25;14.13;;;5.22;;
48789;SDS011;41718;51.980;5.734;2024-02-15T12:29:31;15.43;;;5.30;;
48789;SDS011;41718;51.980;5.734;2024-02-15T12:34:35;10.63;;;4.28;;
48789;SDS011;41718;51.980;5.734;2024-02-15T12:39:44;12.43;;;4.25;;
48789;SDS011;41718;51.980;5.734;2024-02-15T12:44:47;7.90;;;4.40;;
48789;SDS011;41718;51.980;5.734;2024-02-15T12:49:50;8.07;;;5.75;;
48789;SDS011;41718;51.980;5.734;2024-02-15T12:55:05;6.53;;;4.60;;
48789;SDS011;41718;51.980;5.734;2024-02-15T13:00:12;9.48;;;4.40;;
48789;SDS011;41718;51.980;5.734;2024-02-15T13:05:24;9.70;;;4.65;;
48789;SDS011;41718;51.980;5.734;2024-02-15T13:10:30;7.05;;;4.25;;
48789;SDS011;41718;51.980;5.734;2024-02-15T13:15:33;9.68;;;6.07;;
48789;SDS011;41718;51.980;5.734;2024-02-15T13:20:36;7.97;;;4.07;;
48789;SDS011;41718;51.980;5.734;2024-02-15T13:25:40;12.60;;;4.20;;
48789;SDS011;41718;51.980;5.734;2024-02-15T13:30:46;4.10;;;3.13;;
48789;SDS011;41718;51.980;5.734;2024-02-15T13:35:51;6.60;;;2.40;;
48789;SDS011;41718;51.980;5.734;2024-02-15T13:40:53;6.30;;;3.53;;
48789;SDS011;41718;51.980;5.734;2024-02-15T13:45:59;7.80;;;3.03;;
48789;SDS011;41718;51.980;5.734;2024-02-15T13:51:03;5.70;;;3.05;;
48789;SDS011;41718;51.980;5.734;2024-02-15T13:56:12;5.32;;;3.72;;
48789;SDS011;41718;51.980;5.734;2024-02-15T14:01:14;7.32;;;3.22;;
48789;SDS011;41718;51.980;5.734;2024-02-15T14:06:20;6.38;;;4.70;;
48789;SDS011;41718;51.980;5.734;2024-02-15T14:11:23;5.63;;;3.10;;
48789;SDS011;41718;51.980;5.734;2024-02-15T14:16:35;14.70;;;8.27;;
48789;SDS011;41718;51.980;5.734;2024-02-15T14:21:38;5.28;;;4.35;;
48789;SDS011;41718;51.980;5.734;2024-02-15T14:26:44;7.68;;;4.88;;
48789;SDS011;41718;51.980;5.734;2024-02-15T14:31:53;7.03;;;4.25;;
48789;SDS011;41718;51.980;5.734;2024-02-15T14:37:15;8.18;;;3.70;;
48789;SDS011;41718;51.980;5.734;2024-02-15T14:42:21;6.90;;;4.00;;
48789;SDS011;41718;51.980;5.734;2024-02-15T14:47:25;9.45;;;4.03;;
48789;SDS011;41718;51.980;5.734;2024-02-15T14:52:36;12.48;;;6.93;;
48789;SDS011;41718;51.980;5.734;2024-02-15T14:57:41;14.10;;;9.02;;
48789;SDS011;41718;51.980;5.734;2024-02-15T15:02:51;7.15;;;4.32;;
48789;SDS011;41718;51.980;5.734;2024-02-15T15:07:58;5.60;;;3.72;;
48789;SDS011;41718;51.980;5.734;2024-02-15T15:13:21;6.85;;;3.88;;
48789;SDS011;41718;51.980;5.734;2024-02-15T15:18:27;6.65;;;4.25;;
48789;SDS011;41718;51.980;5.734;2024-02-15T15:23:39;5.07;;;4.00;;
48789;SDS011;41718;51.980;5.734;2024-02-15T15:28:45;8.45;;;4.22;;
48789;SDS011;41718;51.980;5.734;2024-02-15T15:33:50;8.23;;;4.20;;
48789;SDS011;41718;51.980;5.734;2024-02-15T15:39:05;6.60;;;3.75;;
48789;SDS011;41718;51.980;5.734;2024-02-15T15:44:18;6.45;;;4.10;;
48789;SDS011;41718;51.980;5.734;2024-02-15T15:54:27;7.10;;;4.18;;
48789;SDS011;41718;51.980;5.734;2024-02-15T15:59:35;7.75;;;4.03;;
48789;SDS011;41718;51.980;5.734;2024-02-15T16:04:44;4.50;;;3.33;;
48789;SDS011;41718;51.980;5.734;2024-02-15T16:09:49;6.57;;;4.07;;
48789;SDS011;41718;51.980;5.734;2024-02-15T16:15:01;5.85;;;2.80;;
48789;SDS011;41718;51.980;5.734;2024-02-15T16:20:08;10.32;;;3.28;;
48789;SDS011;41718;51.980;5.734;2024-02-15T16:25:13;4.97;;;3.10;;
48789;SDS011;41718;51.980;5.734;2024-02-15T16:30:23;3.33;;;1.85;;
48789;SDS011;41718;51.980;5.734;2024-02-15T16:35:27;5.20;;;1.98;;
48789;SDS011;41718;51.980;5.734;2024-02-15T16:40:34;5.50;;;3.65;;
48789;SDS011;41718;51.980;5.734;2024-02-15T16:45:40;3.30;;;2.22;;
48789;SDS011;41718;51.980;5.734;2024-02-15T16:50:43;3.00;;;2.35;;
48789;SDS011;41718;51.980;5.734;2024-02-15T16:55:48;4.32;;;2.75;;
48789;SDS011;41718;51.980;5.734;2024-02-15T17:00:54;2.88;;;2.58;;
48789;SDS011;41718;51.980;5.734;2024-02-15T17:05:59;4.82;;;3.08;;
48789;SDS011;41718;51.980;5.734;2024-02-15T17:11:05;6.78;;;2.40;;
48789;SDS011;41718;51.980;5.734;2024-02-15T17:16:09;13.85;;;8.60;;
48789;SDS011;41718;51.980;5.734;2024-02-15T17:21:16;11.45;;;5.68;;
48789;SDS011;41718;51.980;5.734;2024-02-15T17:26:21;5.32;;;3.20;;
48789;SDS011;41718;51.980;5.734;2024-02-15T17:31:25;12.38;;;8.75;;
48789;SDS011;41718;51.980;5.734;2024-02-15T17:36:29;11.93;;;7.72;;
48789;SDS011;41718;51.980;5.734;2024-02-15T17:41:31;7.18;;;4.55;;
48789;SDS011;41718;51.980;5.734;2024-02-15T17:46:38;5.80;;;2.75;;
48789;SDS011;41718;51.980;5.734;2024-02-15T17:51:41;7.63;;;3.53;;
48789;SDS011;41718;51.980;5.734;2024-02-15T17:56:48;3.63;;;2.63;;
48789;SDS011;41718;51.980;5.734;2024-02-15T18:01:54;3.55;;;2.30;;
48789;SDS011;41718;51.980;5.734;2024-02-15T18:06:58;4.90;;;2.67;;
48789;SDS011;41718;51.980;5.734;2024-02-15T18:12:00;11.25;;;6.30;;
48789;SDS011;41718;51.980;5.734;2024-02-15T18:17:05;6.35;;;2.92;;
48789;SDS011;41718;51.980;5.734;2024-02-15T18:22:08;4.82;;;1.88;;
48789;SDS011;41718;51.980;5.734;2024-02-15T18:27:22;4.95;;;4.25;;
48789;SDS011;41718;51.980;5.734;2024-02-15T18:32:25;6.75;;;3.60;;
48789;SDS011;41718;51.980;5.734;2024-02-15T18:37:30;7.93;;;4.30;;
48789;SDS011;41718;51.980;5.734;2024-02-15T18:42:34;15.73;;;8.75;;
48789;SDS011;41718;51.980;5.734;2024-02-15T18:47:40;9.02;;;6.60;;
48789;SDS011;41718;51.980;5.734;2024-02-15T18:52:43;7.05;;;3.50;;
48789;SDS011;41718;51.980;5.734;2024-02-15T18:57:48;5.82;;;2.75;;
48789;SDS011;41718;51.980;5.734;2024-02-15T19:02:51;3.45;;;3.05;;
48789;SDS011;41718;51.980;5.734;2024-02-15T19:08:02;2.17;;;1.77;;
48789;SDS011;41718;51.980;5.734;2024-02-15T19:13:08;5.30;;;2.15;;
48789;SDS011;41718;51.980;5.734;2024-02-15T19:18:11;4.28;;;2.20;;
48789;SDS011;41718;51.980;5.734;2024-02-15T19:23:17;6.00;;;2.25;;
48789;SDS011;41718;51.980;5.734;2024-02-15T19:28:25;7.68;;;3.92;;
48789;SDS011;41718;51.980;5.734;2024-02-15T19:33:32;5.68;;;3.08;;
48789;SDS011;41718;51.980;5.734;2024-02-15T19:38:58;3.13;;;2.63;;
48789;SDS011;41718;51.980;5.734;2024-02-15T19:44:20;7.35;;;2.97;;
48789;SDS011;41718;51.980;5.734;2024-02-15T19:49:24;5.90;;;3.10;;
48789;SDS011;41718;51.980;5.734;2024-02-15T19:59:47;7.78;;;3.35;;
48789;SDS011;41718;51.980;5.734;2024-02-15T20:04:50;5.18;;;3.25;;
48789;SDS011;41718;51.980;5.734;2024-02-15T20:09:54;6.75;;;3.28;;
48789;SDS011;41718;51.980;5.734;2024-02-15T20:15:04;4.07;;;2.63;;
48789;SDS011;41718;51.980;5.734;2024-02-15T20:20:10;3.95;;;2.85;;
48789;SDS011;41718;51.980;5.734;2024-02-15T20:25:18;3.50;;;2.38;;
48789;SDS011;41718;51.980;5.734;2024-02-15T20:30:24;6.25;;;2.75;;
48789;SDS011;41718;51.980;5.734;2024-02-15T20:35:26;11.82;;;4.60;;
48789;SDS011;41718;51.980;5.734;2024-02-15T20:40:39;5.15;;;3.58;;
48789;SDS011;41718;51.980;5.734;2024-02-15T20:45:44;16.10;;;3.00;;
48789;SDS011;41718;51.980;5.734;2024-02-15T20:50:48;5.07;;;3.03;;
48789;SDS011;41718;51.980;5.734;2024-02-15T20:55:52;3.50;;;2.40;;
48789;SDS011;41718;51.980;5.734;2024-02-15T21:06:01;15.93;;;8.73;;
48789;SDS011;41718;51.980;5.734;2024-02-15T21:11:11;3.50;;;2.58;;
48789;SDS011;41718;51.980;5.734;2024-02-15T21:16:17;4.53;;;2.42;;
48789;SDS011;41718;51.980;5.734;2024-02-15T21:21:23;3.45;;;1.95;;
48789;SDS011;41718;51.980;5.734;2024-02-15T21:26:29;3.72;;;2.42;;
48789;SDS011;41718;51.980;5.734;2024-02-15T21:31:33;3.25;;;2.20;;
48789;SDS011;41718;51.980;5.734;2024-02-15T21:36:42;7.05;;;3.30;;
48789;SDS011;41718;51.980;5.734;2024-02-15T21:41:44;8.57;;;3.10;;
48789;SDS011;41718;51.980;5.734;2024-02-15T21:46:53;7.15;;;3.17;;
48789;SDS011;41718;51.980;5.734;2024-02-15T21:51:56;6.03;;;3.63;;
48789;SDS011;41718;51.980;5.734;2024-02-15T21:57:01;5.90;;;3.78;;
48789;SDS011;41718;51.980;5.734;2024-02-15T22:02:07;4.25;;;3.15;;
48789;SDS011;41718;51.980;5.734;2024-02-15T22:07:12;11.45;;;6.82;;
48789;SDS011;41718;51.980;5.734;2024-02-15T22:12:21;7.97;;;3.90;;
48789;SDS011;41718;51.980;5.734;2024-02-15T22:17:23;5.72;;;3.95;;
48789;SDS011;41718;51.980;5.734;2024-02-15T22:22:26;5.88;;;3.60;;
48789;SDS011;41718;51.980;5.734;2024-02-15T22:27:30;8.60;;;4.57;;
48789;SDS011;41718;51.980;5.734;2024-02-15T22:32:34;4.22;;;3.05;;
48789;SDS011;41718;51.980;5.734;2024-02-15T22:37:39;7.25;;;4.05;;
48789;SDS011;41718;51.980;5.734;2024-02-15T22:42:46;6.50;;;2.72;;
48789;SDS011;41718;51.980;5.734;2024-02-15T22:47:50;7.75;;;2.97;;
48789;SDS011;41718;51.980;5.734;2024-02-15T22:52:54;6.32;;;2.50;;
48789;SDS011;41718;51.980;5.734;2024-02-15T22:57:59;4.50;;;2.50;;
48789;SDS011;41718;51.980;5.734;2024-02-15T23:03:02;5.90;;;3.00;;
48789;SDS011;41718;51.980;5.734;2024-02-15T23:08:06;4.53;;;3.30;;
48789;SDS011;41718;51.980;5.734;2024-02-15T23:13:09;4.47;;;3.60;;
48789;SDS011;41718;51.980;5.734;2024-02-15T23:18:20;4.60;;;2.78;;
48789;SDS011;41718;51.980;5.734;2024-02-15T23:23:27;4.75;;;2.65;;
48789;SDS011;41718;51.980;5.734;2024-02-15T23:28:33;8.63;;;4.60;;
48789;SDS011;41718;51.980;5.734;2024-02-15T23:33:36;7.50;;;4.85;;
48789;SDS011;41718;51.980;5.734;2024-02-15T23:38:47;4.72;;;2.60;;
48789;SDS011;41718;51.980;5.734;2024-02-15T23:44:11;6.63;;;3.95;;
48789;SDS011;41718;51.980;5.734;2024-02-15T23:49:18;5.05;;;3.30;;
48789;SDS011;41718;51.980;5.734;2024-02-15T23:54:20;5.22;;;3.28;;
48789;SDS011;41718;51.980;5.734;2024-02-15T23:59:23;6.97;;;3.10;;
